In Rescue
 
Open Full Screen Window  High Contrast Mode
Wind Gusting 00 knots
06
November 29, 2022 9:17 AM EST
Weather Information
Wind Direction
  130 °
Wind Speed
  06 kt (7 mph)
Wind Gust
  00 kt (0 mph)
Altimeter
29.94 in
Visibility
10 SM
Temperature
06° C
43° F
Dewpoint
04° C
39° F
Humidity
87%
1hr Rain Fall
00.00 in.
24hr Rain Fall
00.00 in.
Sky Condition
Overcast @ 2,400 ft
MVFR

METAR KRMY 291417Z AUTO 13006KT 10SM OVC024 06/04 A2994 RMK AO2 T00550035

FAA Disclaimer: The data displayed is for advisory purposes only and is not to be used for flight planning or operations.